sensor_id;sensor_type;location;lat;lon;timestamp;pressure;altitude;pressure_sealevel;temperature;humidity
30897;BME280;64229;52.246;21.054;2023-10-09T00:00:53;101301.56;;;5.25;64.09
30897;BME280;64229;52.246;21.054;2023-10-09T00:03:27;101300.97;;;5.16;64.20
30897;BME280;64229;52.246;21.054;2023-10-09T00:05:53;101299.97;;;5.11;64.38
30897;BME280;64229;52.246;21.054;2023-10-09T00:08:19;101297.31;;;5.04;65.13
30897;BME280;64229;52.246;21.054;2023-10-09T00:10:52;101298.72;;;5.13;65.04
30897;BME280;64229;52.246;21.054;2023-10-09T00:13:21;101291.19;;;5.10;65.21
30897;BME280;64229;52.246;21.054;2023-10-09T00:15:53;101299.75;;;5.06;65.85
30897;BME280;64229;52.246;21.054;2023-10-09T00:18:25;101281.63;;;5.09;65.61
30897;BME280;64229;52.246;21.054;2023-10-09T00:20:55;101287.13;;;5.14;65.49
30897;BME280;64229;52.246;21.054;2023-10-09T00:23:25;101297.28;;;5.37;64.53
30897;BME280;64229;52.246;21.054;2023-10-09T00:25:51;101295.25;;;5.26;64.70
30897;BME280;64229;52.246;21.054;2023-10-09T00:28:52;101290.56;;;5.48;63.87
30897;BME280;64229;52.246;21.054;2023-10-09T00:31:18;101282.84;;;5.33;64.28
30897;BME280;64229;52.246;21.054;2023-10-09T00:33:58;101278.16;;;5.35;64.47
30897;BME280;64229;52.246;21.054;2023-10-09T00:36:32;101277.75;;;5.18;65.21
30897;BME280;64229;52.246;21.054;2023-10-09T00:38:58;101275.50;;;5.09;65.65
30897;BME280;64229;52.246;21.054;2023-10-09T00:41:30;101277.97;;;4.97;66.64
30897;BME280;64229;52.246;21.054;2023-10-09T00:44:00;101272.28;;;5.00;66.98
30897;BME280;64229;52.246;21.054;2023-10-09T00:46:25;101262.50;;;5.01;66.88
30897;BME280;64229;52.246;21.054;2023-10-09T00:48:59;101257.63;;;5.04;66.73
30897;BME280;64229;52.246;21.054;2023-10-09T00:51:28;101258.22;;;5.00;66.85
30897;BME280;64229;52.246;21.054;2023-10-09T00:54:01;101254.97;;;4.98;67.41
30897;BME280;64229;52.246;21.054;2023-10-09T00:56:34;101241.13;;;5.09;67.18
30897;BME280;64229;52.246;21.054;2023-10-09T00:59:08;101252.53;;;5.22;66.05
30897;BME280;64229;52.246;21.054;2023-10-09T01:01:40;101243.75;;;5.29;65.81
30897;BME280;64229;52.246;21.054;2023-10-09T01:04:10;101240.31;;;5.15;66.29
30897;BME280;64229;52.246;21.054;2023-10-09T01:06:45;101244.16;;;5.19;66.14
30897;BME280;64229;52.246;21.054;2023-10-09T01:09:13;101256.78;;;5.17;66.13
30897;BME280;64229;52.246;21.054;2023-10-09T01:11:42;101250.28;;;5.00;67.10
30897;BME280;64229;52.246;21.054;2023-10-09T01:14:30;101238.06;;;5.18;66.75
30897;BME280;64229;52.246;21.054;2023-10-09T01:16:56;101245.59;;;5.21;66.46
30897;BME280;64229;52.246;21.054;2023-10-09T01:19:22;101239.06;;;5.17;66.49
30897;BME280;64229;52.246;21.054;2023-10-09T01:21:56;101236.44;;;5.17;66.78
30897;BME280;64229;52.246;21.054;2023-10-09T01:24:37;101228.69;;;5.09;66.99
30897;BME280;64229;52.246;21.054;2023-10-09T01:27:04;101216.09;;;5.05;67.30
30897;BME280;64229;52.246;21.054;2023-10-09T01:29:36;101212.81;;;5.09;67.42
30897;BME280;64229;52.246;21.054;2023-10-09T01:32:01;101211.81;;;5.04;67.84
30897;BME280;64229;52.246;21.054;2023-10-09T01:34:31;101214.25;;;5.12;67.59
30897;BME280;64229;52.246;21.054;2023-10-09T01:36:59;101205.91;;;5.15;67.36
30897;BME280;64229;52.246;21.054;2023-10-09T01:39:25;101224.03;;;5.11;67.54
30897;BME280;64229;52.246;21.054;2023-10-09T01:42:05;101215.28;;;5.11;68.10
30897;BME280;64229;52.246;21.054;2023-10-09T01:44:32;101215.84;;;5.19;67.47
30897;BME280;64229;52.246;21.054;2023-10-09T01:47:04;101208.97;;;5.12;67.65
30897;BME280;64229;52.246;21.054;2023-10-09T01:49:36;101200.38;;;5.30;67.36
30897;BME280;64229;52.246;21.054;2023-10-09T01:52:07;101197.97;;;5.15;68.02
30897;BME280;64229;52.246;21.054;2023-10-09T01:54:38;101193.28;;;5.10;67.71
30897;BME280;64229;52.246;21.054;2023-10-09T01:57:06;101201.22;;;5.10;67.89
30897;BME280;64229;52.246;21.054;2023-10-09T01:59:37;101198.94;;;5.27;67.54
30897;BME280;64229;52.246;21.054;2023-10-09T02:02:17;101179.03;;;5.18;67.56
30897;BME280;64229;52.246;21.054;2023-10-09T02:04:56;101191.63;;;5.29;67.38
30897;BME280;64229;52.246;21.054;2023-10-09T02:07:36;101192.84;;;5.27;67.73
30897;BME280;64229;52.246;21.054;2023-10-09T02:10:21;101201.53;;;5.54;66.93
30897;BME280;64229;52.246;21.054;2023-10-09T02:12:56;101189.94;;;5.41;66.56
30897;BME280;64229;52.246;21.054;2023-10-09T02:15:28;101188.38;;;5.20;66.54
30897;BME280;64229;52.246;21.054;2023-10-09T02:18:18;101189.22;;;5.08;67.18
30897;BME280;64229;52.246;21.054;2023-10-09T02:20:48;101185.97;;;5.12;67.03
30897;BME280;64229;52.246;21.054;2023-10-09T02:23:21;101198.59;;;5.04;67.63
30897;BME280;64229;52.246;21.054;2023-10-09T02:25:50;101195.53;;;5.13;66.92
30897;BME280;64229;52.246;21.054;2023-10-09T02:28:18;101187.00;;;5.11;67.08
30897;BME280;64229;52.246;21.054;2023-10-09T02:30:46;101184.13;;;5.13;67.77
30897;BME280;64229;52.246;21.054;2023-10-09T02:33:16;101182.94;;;5.02;68.75
30897;BME280;64229;52.246;21.054;2023-10-09T02:35:56;101179.22;;;5.10;69.19
30897;BME280;64229;52.246;21.054;2023-10-09T02:38:25;101167.41;;;5.19;69.25
30897;BME280;64229;52.246;21.054;2023-10-09T02:40:51;101173.13;;;5.22;69.38
30897;BME280;64229;52.246;21.054;2023-10-09T02:43:30;101183.72;;;5.16;69.59
30897;BME280;64229;52.246;21.054;2023-10-09T02:46:15;101190.03;;;5.08;70.08
30897;BME280;64229;52.246;21.054;2023-10-09T02:48:45;101175.78;;;5.16;70.53
30897;BME280;64229;52.246;21.054;2023-10-09T02:51:13;101167.63;;;5.24;70.05
30897;BME280;64229;52.246;21.054;2023-10-09T02:53:51;101181.03;;;5.29;70.34
30897;BME280;64229;52.246;21.054;2023-10-09T02:56:16;101167.56;;;5.31;69.96
30897;BME280;64229;52.246;21.054;2023-10-09T02:58:49;101176.78;;;5.21;69.72
30897;BME280;64229;52.246;21.054;2023-10-09T03:01:14;101163.94;;;5.25;69.03
30897;BME280;64229;52.246;21.054;2023-10-09T03:03:40;101163.16;;;5.11;69.54
30897;BME280;64229;52.246;21.054;2023-10-09T03:06:11;101167.66;;;4.98;70.02
30897;BME280;64229;52.246;21.054;2023-10-09T03:08:38;101176.19;;;5.06;69.43
30897;BME280;64229;52.246;21.054;2023-10-09T03:11:03;101177.22;;;5.12;68.78
30897;BME280;64229;52.246;21.054;2023-10-09T03:13:31;101171.28;;;5.10;68.67
30897;BME280;64229;52.246;21.054;2023-10-09T03:15:59;101181.47;;;5.06;68.67
30897;BME280;64229;52.246;21.054;2023-10-09T03:18:24;101160.91;;;5.08;68.78
30897;BME280;64229;52.246;21.054;2023-10-09T03:20:49;101169.69;;;5.02;68.70
30897;BME280;64229;52.246;21.054;2023-10-09T03:23:15;101169.69;;;4.96;68.95
30897;BME280;64229;52.246;21.054;2023-10-09T03:25:41;101162.59;;;4.89;68.89
30897;BME280;64229;52.246;21.054;2023-10-09T03:28:11;101160.53;;;5.05;68.97
30897;BME280;64229;52.246;21.054;2023-10-09T03:30:37;101161.34;;;5.12;68.18
30897;BME280;64229;52.246;21.054;2023-10-09T03:33:05;101170.69;;;5.08;68.66
30897;BME280;64229;52.246;21.054;2023-10-09T03:35:32;101177.84;;;5.01;68.98
30897;BME280;64229;52.246;21.054;2023-10-09T03:37:59;101170.94;;;4.93;69.45
30897;BME280;64229;52.246;21.054;2023-10-09T03:40:43;101167.22;;;5.07;68.96
30897;BME280;64229;52.246;21.054;2023-10-09T03:43:09;101163.16;;;5.11;68.37
30897;BME280;64229;52.246;21.054;2023-10-09T03:45:38;101168.03;;;5.08;68.44
30897;BME280;64229;52.246;21.054;2023-10-09T03:48:10;101166.03;;;5.03;68.43
30897;BME280;64229;52.246;21.054;2023-10-09T03:50:52;101164.19;;;5.04;68.70
30897;BME280;64229;52.246;21.054;2023-10-09T03:53:33;101164.63;;;5.01;68.65
30897;BME280;64229;52.246;21.054;2023-10-09T03:56:02;101162.13;;;5.19;67.79
30897;BME280;64229;52.246;21.054;2023-10-09T03:58:30;101161.09;;;5.27;67.07
30897;BME280;64229;52.246;21.054;2023-10-09T04:00:58;101154.00;;;5.14;67.73
30897;BME280;64229;52.246;21.054;2023-10-09T04:03:23;101153.38;;;5.18;67.44
30897;BME280;64229;52.246;21.054;2023-10-09T04:05:49;101164.16;;;5.17;67.58
30897;BME280;64229;52.246;21.054;2023-10-09T04:08:17;101162.75;;;5.08;67.90
30897;BME280;64229;52.246;21.054;2023-10-09T04:10:45;101165.19;;;5.09;67.52
30897;BME280;64229;52.246;21.054;2023-10-09T04:13:17;101162.13;;;5.19;67.29
30897;BME280;64229;52.246;21.054;2023-10-09T04:15:47;101161.53;;;5.10;67.66
30897;BME280;64229;52.246;21.054;2023-10-09T04:18:15;101164.75;;;5.19;66.99
30897;BME280;64229;52.246;21.054;2023-10-09T04:20:41;101154.59;;;5.09;67.34
30897;BME280;64229;52.246;21.054;2023-10-09T04:23:33;101151.13;;;5.15;67.17
30897;BME280;64229;52.246;21.054;2023-10-09T04:26:20;101159.91;;;5.09;67.74
30897;BME280;64229;52.246;21.054;2023-10-09T04:28:46;101144.06;;;5.03;68.19
30897;BME280;64229;52.246;21.054;2023-10-09T04:31:16;101140.59;;;5.02;68.38
30897;BME280;64229;52.246;21.054;2023-10-09T04:33:42;101139.16;;;5.00;68.47
30897;BME280;64229;52.246;21.054;2023-10-09T04:36:19;101130.81;;;4.96;69.09
30897;BME280;64229;52.246;21.054;2023-10-09T04:38:44;101126.34;;;5.03;68.99
30897;BME280;64229;52.246;21.054;2023-10-09T04:41:34;101113.72;;;5.12;69.24
30897;BME280;64229;52.246;21.054;2023-10-09T04:44:20;101111.88;;;5.06;69.43
30897;BME280;64229;52.246;21.054;2023-10-09T04:47:00;101114.31;;;5.07;69.56
30897;BME280;64229;52.246;21.054;2023-10-09T04:49:37;101115.56;;;5.05;70.50
30897;BME280;64229;52.246;21.054;2023-10-09T04:52:21;101118.41;;;5.03;71.24
30897;BME280;64229;52.246;21.054;2023-10-09T04:55:07;101113.28;;;5.21;70.07
30897;BME280;64229;52.246;21.054;2023-10-09T04:57:40;101111.41;;;5.29;69.88
30897;BME280;64229;52.246;21.054;2023-10-09T05:05:22;101089.25;;;5.16;70.44
30897;BME280;64229;52.246;21.054;2023-10-09T05:08:09;101084.59;;;5.12;70.87
30897;BME280;64229;52.246;21.054;2023-10-09T05:13:32;101072.38;;;5.11;70.33
30897;BME280;64229;52.246;21.054;2023-10-09T05:16:04;101064.44;;;5.11;70.77
30897;BME280;64229;52.246;21.054;2023-10-09T05:18:30;101058.31;;;5.10;70.28
30897;BME280;64229;52.246;21.054;2023-10-09T05:21:04;101044.91;;;5.12;69.85
30897;BME280;64229;52.246;21.054;2023-10-09T05:23:41;101047.91;;;5.22;69.64
30897;BME280;64229;52.246;21.054;2023-10-09T05:26:14;101051.59;;;5.21;69.81
30897;BME280;64229;52.246;21.054;2023-10-09T05:29:02;101050.75;;;5.20;69.60
30897;BME280;64229;52.246;21.054;2023-10-09T05:31:47;101056.63;;;5.29;69.42
30897;BME280;64229;52.246;21.054;2023-10-09T05:34:27;101064.97;;;5.33;69.16
30897;BME280;64229;52.246;21.054;2023-10-09T05:37:02;101073.44;;;5.48;68.31
30897;BME280;64229;52.246;21.054;2023-10-09T05:39:46;101065.72;;;5.46;68.62
30897;BME280;64229;52.246;21.054;2023-10-09T05:42:35;101060.84;;;5.43;68.72
30897;BME280;64229;52.246;21.054;2023-10-09T05:45:11;101056.59;;;5.36;68.83
30897;BME280;64229;52.246;21.054;2023-10-09T05:50:35;101056.34;;;5.44;68.56
30897;BME280;64229;52.246;21.054;2023-10-09T05:53:02;101063.09;;;5.40;68.82
30897;BME280;64229;52.246;21.054;2023-10-09T05:55:28;101057.19;;;5.38;69.05
30897;BME280;64229;52.246;21.054;2023-10-09T05:58:13;101049.25;;;5.38;69.34
30897;BME280;64229;52.246;21.054;2023-10-09T06:00:56;101051.47;;;5.41;69.10
30897;BME280;64229;52.246;21.054;2023-10-09T06:03:40;101038.84;;;5.43;69.10
30897;BME280;64229;52.246;21.054;2023-10-09T06:06:22;101038.22;;;5.41;69.19
30897;BME280;64229;52.246;21.054;2023-10-09T06:09:08;101035.78;;;5.39;69.65
30897;BME280;64229;52.246;21.054;2023-10-09T06:11:43;101027.25;;;5.44;69.29
30897;BME280;64229;52.246;21.054;2023-10-09T06:14:26;101019.91;;;5.39;68.91
30897;BME280;64229;52.246;21.054;2023-10-09T06:16:55;101036.16;;;5.49;68.94
30897;BME280;64229;52.246;21.054;2023-10-09T06:19:41;101022.34;;;5.41;69.02
30897;BME280;64229;52.246;21.054;2023-10-09T06:22:10;101044.06;;;5.56;68.90
30897;BME280;64229;52.246;21.054;2023-10-09T06:24:54;101045.47;;;5.59;69.00
30897;BME280;64229;52.246;21.054;2023-10-09T06:27:20;101036.13;;;5.56;68.83
30897;BME280;64229;52.246;21.054;2023-10-09T06:30:00;101044.41;;;5.66;68.54
30897;BME280;64229;52.246;21.054;2023-10-09T06:32:37;101044.81;;;5.63;68.75
30897;BME280;64229;52.246;21.054;2023-10-09T06:35:03;101048.31;;;5.64;69.08
30897;BME280;64229;52.246;21.054;2023-10-09T06:37:48;101032.88;;;5.54;69.06
30897;BME280;64229;52.246;21.054;2023-10-09T06:40:34;101049.72;;;5.66;68.71
30897;BME280;64229;52.246;21.054;2023-10-09T06:43:19;101049.28;;;5.69;68.66
30897;BME280;64229;52.246;21.054;2023-10-09T06:45:49;101054.75;;;5.74;68.56
30897;BME280;64229;52.246;21.054;2023-10-09T06:48:21;101046.97;;;5.79;68.25
30897;BME280;64229;52.246;21.054;2023-10-09T06:51:07;101033.75;;;5.73;68.23
30897;BME280;64229;52.246;21.054;2023-10-09T06:53:58;101048.94;;;5.91;68.31
30897;BME280;64229;52.246;21.054;2023-10-09T06:56:29;101044.44;;;5.98;67.68
30897;BME280;64229;52.246;21.054;2023-10-09T06:59:02;101047.00;;;6.04;67.66
30897;BME280;64229;52.246;21.054;2023-10-09T07:01:42;101045.72;;;6.14;67.46
30897;BME280;64229;52.246;21.054;2023-10-09T07:04:12;101049.13;;;6.21;67.31
30897;BME280;64229;52.246;21.054;2023-10-09T07:06:45;101044.78;;;6.26;67.10
30897;BME280;64229;52.246;21.054;2023-10-09T07:09:11;101038.88;;;6.24;66.72
30897;BME280;64229;52.246;21.054;2023-10-09T07:11:38;101051.22;;;6.37;66.19
30897;BME280;64229;52.246;21.054;2023-10-09T07:14:11;101056.16;;;6.33;65.50
30897;BME280;64229;52.246;21.054;2023-10-09T07:19:25;101057.28;;;6.44;65.20
30897;BME280;64229;52.246;21.054;2023-10-09T07:22:01;101059.66;;;6.52;65.23
30897;BME280;64229;52.246;21.054;2023-10-09T07:24:32;101071.75;;;6.66;65.32
30897;BME280;64229;52.246;21.054;2023-10-09T07:27:09;101062.78;;;6.86;64.73
30897;BME280;64229;52.246;21.054;2023-10-09T07:29:37;101058.56;;;6.96;64.31
30897;BME280;64229;52.246;21.054;2023-10-09T07:32:15;101058.41;;;7.10;63.99
30897;BME280;64229;52.246;21.054;2023-10-09T07:34:46;101050.66;;;7.27;63.50
30897;BME280;64229;52.246;21.054;2023-10-09T07:37:19;101054.38;;;7.37;63.04
30897;BME280;64229;52.246;21.054;2023-10-09T07:39:45;101056.50;;;7.47;62.96
30897;BME280;64229;52.246;21.054;2023-10-09T07:42:22;101042.06;;;7.54;62.60
30897;BME280;64229;52.246;21.054;2023-10-09T07:45:10;101045.13;;;7.58;62.18
30897;BME280;64229;52.246;21.054;2023-10-09T07:47:58;101055.88;;;7.75;61.91
30897;BME280;64229;52.246;21.054;2023-10-09T07:50:37;101060.22;;;7.88;61.60
30897;BME280;64229;52.246;21.054;2023-10-09T07:53:08;101054.22;;;7.92;60.77
30897;BME280;64229;52.246;21.054;2023-10-09T07:55:40;101051.22;;;7.89;60.04
30897;BME280;64229;52.246;21.054;2023-10-09T07:58:11;101054.94;;;7.99;59.90
30897;BME280;64229;52.246;21.054;2023-10-09T08:00:37;101057.38;;;8.12;59.94
30897;BME280;64229;52.246;21.054;2023-10-09T08:03:22;101049.44;;;8.36;59.06
30897;BME280;64229;52.246;21.054;2023-10-09T08:05:54;101025.22;;;8.61;57.18
30897;BME280;64229;52.246;21.054;2023-10-09T08:08:32;101034.97;;;8.55;57.34
30897;BME280;64229;52.246;21.054;2023-10-09T08:10:58;101036.47;;;8.63;57.31
30897;BME280;64229;52.246;21.054;2023-10-09T08:13:42;101024.91;;;8.57;57.14
30897;BME280;64229;52.246;21.054;2023-10-09T08:16:23;101019.34;;;8.59;57.01
30897;BME280;64229;52.246;21.054;2023-10-09T08:18:49;101032.19;;;8.62;57.02
30897;BME280;64229;52.246;21.054;2023-10-09T08:21:17;101031.00;;;8.69;56.98
30897;BME280;64229;52.246;21.054;2023-10-09T08:23:42;101019.19;;;8.77;56.86
30897;BME280;64229;52.246;21.054;2023-10-09T08:26:14;101031.09;;;8.86;56.08
30897;BME280;64229;52.246;21.054;2023-10-09T08:28:40;101025.53;;;8.88;55.94
30897;BME280;64229;52.246;21.054;2023-10-09T08:31:18;101034.66;;;8.92;54.77
30897;BME280;64229;52.246;21.054;2023-10-09T08:34:10;101022.47;;;9.08;55.01
30897;BME280;64229;52.246;21.054;2023-10-09T08:36:48;101021.09;;;9.34;54.47
30897;BME280;64229;52.246;21.054;2023-10-09T08:39:17;101021.09;;;9.62;53.74
30897;BME280;64229;52.246;21.054;2023-10-09T08:41:52;101014.97;;;10.29;51.13
30897;BME280;64229;52.246;21.054;2023-10-09T08:44:19;101012.47;;;10.61;50.16
30897;BME280;64229;52.246;21.054;2023-10-09T08:46:49;101011.19;;;10.63;49.96
30897;BME280;64229;52.246;21.054;2023-10-09T08:49:16;101018.19;;;10.69;49.79
30897;BME280;64229;52.246;21.054;2023-10-09T08:51:41;101010.75;;;10.93;47.84
30897;BME280;64229;52.246;21.054;2023-10-09T08:54:08;101020.56;;;10.88;47.94
30897;BME280;64229;52.246;21.054;2023-10-09T08:56:37;101024.97;;;10.77;48.12
30897;BME280;64229;52.246;21.054;2023-10-09T08:59:05;101017.50;;;10.57;48.28
30897;BME280;64229;52.246;21.054;2023-10-09T09:01:30;101016.00;;;10.45;48.95
30897;BME280;64229;52.246;21.054;2023-10-09T09:03:57;100994.25;;;10.36;49.15
30897;BME280;64229;52.246;21.054;2023-10-09T09:06:25;100992.25;;;10.26;48.71
30897;BME280;64229;52.246;21.054;2023-10-09T09:08:51;101002.91;;;10.43;48.88
30897;BME280;64229;52.246;21.054;2023-10-09T09:11:24;100999.00;;;10.51;48.86
30897;BME280;64229;52.246;21.054;2023-10-09T09:16:23;100982.75;;;11.23;47.31
30897;BME280;64229;52.246;21.054;2023-10-09T09:18:56;100973.88;;;11.44;45.37
30897;BME280;64229;52.246;21.054;2023-10-09T09:21:35;100952.84;;;11.26;45.46
30897;BME280;64229;52.246;21.054;2023-10-09T09:24:08;100967.09;;;11.32;46.14
30897;BME280;64229;52.246;21.054;2023-10-09T09:26:46;100957.06;;;11.17;46.19
30897;BME280;64229;52.246;21.054;2023-10-09T09:29:15;100961.38;;;11.23;46.34
30897;BME280;64229;52.246;21.054;2023-10-09T09:31:55;100962.72;;;11.25;46.58
30897;BME280;64229;52.246;21.054;2023-10-09T09:34:22;100971.56;;;11.53;45.29
30897;BME280;64229;52.246;21.054;2023-10-09T09:36:55;100962.81;;;11.63;44.60
30897;BME280;64229;52.246;21.054;2023-10-09T09:39:22;100960.34;;;11.88;43.95
30897;BME280;64229;52.246;21.054;2023-10-09T09:42:00;100949.47;;;12.47;43.12
30897;BME280;64229;52.246;21.054;2023-10-09T09:44:39;100926.53;;;12.71;41.30
30897;BME280;64229;52.246;21.054;2023-10-09T09:47:13;100937.94;;;13.75;40.06
30897;BME280;64229;52.246;21.054;2023-10-09T09:49:45;100945.25;;;14.70;38.90
30897;BME280;64229;52.246;21.054;2023-10-09T09:52:13;100936.63;;;14.73;38.06
30897;BME280;64229;52.246;21.054;2023-10-09T09:54:39;100932.78;;;14.14;38.57
30897;BME280;64229;52.246;21.054;2023-10-09T09:57:07;100928.84;;;13.56;39.88
30897;BME280;64229;52.246;21.054;2023-10-09T09:59:38;100921.84;;;13.24;40.46
30897;BME280;64229;52.246;21.054;2023-10-09T10:02:05;100930.59;;;12.94;40.45
30897;BME280;64229;52.246;21.054;2023-10-09T10:04:35;100918.47;;;12.61;40.31
30897;BME280;64229;52.246;21.054;2023-10-09T10:07:02;100922.59;;;12.27;40.13
30897;BME280;64229;52.246;21.054;2023-10-09T10:09:35;100925.09;;;11.96;41.68
30897;BME280;64229;52.246;21.054;2023-10-09T10:12:04;100907.81;;;12.14;40.48
30897;BME280;64229;52.246;21.054;2023-10-09T10:14:52;100916.06;;;12.07;41.00
30897;BME280;64229;52.246;21.054;2023-10-09T10:17:17;100899.38;;;11.90;41.63
30897;BME280;64229;52.246;21.054;2023-10-09T10:20:07;100908.78;;;11.93;42.02
30897;BME280;64229;52.246;21.054;2023-10-09T10:23:16;100904.34;;;12.13;41.16
30897;BME280;64229;52.246;21.054;2023-10-09T10:25:44;100896.53;;;12.02;41.23
30897;BME280;64229;52.246;21.054;2023-10-09T10:28:23;100885.50;;;11.93;41.46
30897;BME280;64229;52.246;21.054;2023-10-09T10:31:08;100887.56;;;11.81;41.84
30897;BME280;64229;52.246;21.054;2023-10-09T10:34:06;100881.88;;;11.77;42.08
30897;BME280;64229;52.246;21.054;2023-10-09T10:36:35;100876.53;;;11.77;42.03
30897;BME280;64229;52.246;21.054;2023-10-09T10:39:05;100870.50;;;11.50;42.70
30897;BME280;64229;52.246;21.054;2023-10-09T10:42:04;100867.41;;;11.36;43.07
30897;BME280;64229;52.246;21.054;2023-10-09T10:44:32;100845.88;;;11.16;43.41
30897;BME280;64229;52.246;21.054;2023-10-09T10:47:05;100874.16;;;11.39;43.49
30897;BME280;64229;52.246;21.054;2023-10-09T10:49:43;100871.03;;;11.52;42.32
30897;BME280;64229;52.246;21.054;2023-10-09T10:52:19;100872.13;;;11.24;42.91
30897;BME280;64229;52.246;21.054;2023-10-09T10:54:45;100867.81;;;11.18;42.18
30897;BME280;64229;52.246;21.054;2023-10-09T10:57:18;100865.63;;;11.10;42.16
30897;BME280;64229;52.246;21.054;2023-10-09T11:00:11;100868.38;;;11.20;40.95
30897;BME280;64229;52.246;21.054;2023-10-09T11:02:59;100859.63;;;10.97;41.08
30897;BME280;64229;52.246;21.054;2023-10-09T11:05:40;100854.19;;;10.87;41.62
30897;BME280;64229;52.246;21.054;2023-10-09T11:08:09;100854.13;;;10.82;41.93
30897;BME280;64229;52.246;21.054;2023-10-09T11:10:35;100852.69;;;10.69;42.37
30897;BME280;64229;52.246;21.054;2023-10-09T11:13:00;100850.88;;;10.75;42.46
30897;BME280;64229;52.246;21.054;2023-10-09T11:15:36;100846.38;;;10.81;41.75
30897;BME280;64229;52.246;21.054;2023-10-09T11:18:22;100839.78;;;10.88;41.70
30897;BME280;64229;52.246;21.054;2023-10-09T11:20:58;100842.72;;;10.87;41.98
30897;BME280;64229;52.246;21.054;2023-10-09T11:23:32;100834.63;;;10.82;42.67
30897;BME280;64229;52.246;21.054;2023-10-09T11:26:05;100838.72;;;10.89;43.00
30897;BME280;64229;52.246;21.054;2023-10-09T11:29:12;100833.47;;;10.99;43.44
30897;BME280;64229;52.246;21.054;2023-10-09T11:32:20;100827.06;;;10.73;44.15
30897;BME280;64229;52.246;21.054;2023-10-09T11:35:10;100828.19;;;10.51;44.65
30897;BME280;64229;52.246;21.054;2023-10-09T11:37:35;100819.69;;;10.54;44.87
30897;BME280;64229;52.246;21.054;2023-10-09T11:40:05;100828.50;;;10.81;44.51
30897;BME280;64229;52.246;21.054;2023-10-09T11:42:49;100824.03;;;10.92;44.07
30897;BME280;64229;52.246;21.054;2023-10-09T11:45:21;100807.00;;;10.66;44.54
30897;BME280;64229;52.246;21.054;2023-10-09T11:47:54;100819.47;;;10.87;44.50
30897;BME280;64229;52.246;21.054;2023-10-09T11:50:42;100815.06;;;11.03;44.61
30897;BME280;64229;52.246;21.054;2023-10-09T11:53:09;100807.09;;;10.76;45.21
30897;BME280;64229;52.246;21.054;2023-10-09T11:55:37;100810.81;;;10.75;46.31
30897;BME280;64229;52.246;21.054;2023-10-09T11:58:03;100801.06;;;10.91;46.85
30897;BME280;64229;52.246;21.054;2023-10-09T12:00:30;100804.09;;;10.99;46.92
30897;BME280;64229;52.246;21.054;2023-10-09T12:02:57;100805.69;;;11.00;47.58
30897;BME280;64229;52.246;21.054;2023-10-09T12:05:31;100808.81;;;10.87;48.36
30897;BME280;64229;52.246;21.054;2023-10-09T12:07:57;100808.34;;;10.68;49.14
30897;BME280;64229;52.246;21.054;2023-10-09T12:10:24;100801.59;;;10.61;49.58
30897;BME280;64229;52.246;21.054;2023-10-09T12:12:54;100804.09;;;10.72;50.48
30897;BME280;64229;52.246;21.054;2023-10-09T12:15:23;100808.47;;;10.84;50.42
30897;BME280;64229;52.246;21.054;2023-10-09T12:17:48;100806.03;;;10.77;50.78
30897;BME280;64229;52.246;21.054;2023-10-09T12:20:14;100800.66;;;11.04;50.94
30897;BME280;64229;52.246;21.054;2023-10-09T12:22:55;100789.66;;;11.00;50.96
30897;BME280;64229;52.246;21.054;2023-10-09T12:25:23;100782.94;;;10.93;51.88
30897;BME280;64229;52.246;21.054;2023-10-09T12:27:48;100780.06;;;10.99;52.34
30897;BME280;64229;52.246;21.054;2023-10-09T12:30:13;100788.06;;;10.99;52.60
30897;BME280;64229;52.246;21.054;2023-10-09T12:32:39;100785.84;;;10.91;53.43
30897;BME280;64229;52.246;21.054;2023-10-09T12:35:05;100780.47;;;10.86;53.96
30897;BME280;64229;52.246;21.054;2023-10-09T12:37:42;100795.69;;;10.86;54.41
30897;BME280;64229;52.246;21.054;2023-10-09T12:40:08;100793.44;;;10.72;54.88
30897;BME280;64229;52.246;21.054;2023-10-09T12:42:36;100790.72;;;10.67;55.98
30897;BME280;64229;52.246;21.054;2023-10-09T12:45:02;100776.56;;;10.67;56.70
30897;BME280;64229;52.246;21.054;2023-10-09T12:47:33;100795.72;;;10.91;57.37
30897;BME280;64229;52.246;21.054;2023-10-09T12:49:58;100787.59;;;10.76;57.08
30897;BME280;64229;52.246;21.054;2023-10-09T12:52:24;100796.56;;;10.64;57.83
30897;BME280;64229;52.246;21.054;2023-10-09T12:54:55;100796.22;;;10.56;58.03
30897;BME280;64229;52.246;21.054;2023-10-09T12:57:20;100789.47;;;10.75;57.54
30897;BME280;64229;52.246;21.054;2023-10-09T12:59:45;100796.34;;;10.71;57.71
30897;BME280;64229;52.246;21.054;2023-10-09T13:02:14;100791.16;;;10.59;58.63
30897;BME280;64229;52.246;21.054;2023-10-09T13:04:56;100780.88;;;10.73;58.44
30897;BME280;64229;52.246;21.054;2023-10-09T13:07:22;100767.38;;;10.53;58.72
30897;BME280;64229;52.246;21.054;2023-10-09T13:09:48;100774.22;;;10.43;59.67
30897;BME280;64229;52.246;21.054;2023-10-09T13:12:32;100785.94;;;10.42;59.81
30897;BME280;64229;52.246;21.054;2023-10-09T13:14:57;100783.31;;;10.48;60.13
30897;BME280;64229;52.246;21.054;2023-10-09T13:17:23;100777.59;;;10.34;60.04
30897;BME280;64229;52.246;21.054;2023-10-09T13:19:52;100781.91;;;10.40;60.29
30897;BME280;64229;52.246;21.054;2023-10-09T13:22:17;100775.97;;;10.33;60.85
30897;BME280;64229;52.246;21.054;2023-10-09T13:24:43;100775.81;;;10.45;60.96
30897;BME280;64229;52.246;21.054;2023-10-09T13:27:08;100778.06;;;10.53;60.71
30897;BME280;64229;52.246;21.054;2023-10-09T13:29:37;100762.69;;;10.38;60.63
30897;BME280;64229;52.246;21.054;2023-10-09T13:32:05;100761.56;;;10.34;60.96